createdAt,value
2022-09-07T00:01:52.835Z,102113.47
2022-09-07T00:04:19.761Z,102111.22
2022-09-07T00:06:46.434Z,102115.63
2022-09-07T00:09:13.078Z,102102.44
2022-09-07T00:11:39.697Z,102106.84
2022-09-07T00:14:07.679Z,102100.53
2022-09-07T00:16:34.725Z,102097.81
2022-09-07T00:19:03.376Z,102094.44
2022-09-07T00:21:30.789Z,102091.41
2022-09-07T00:23:57.634Z,102093.16
2022-09-07T00:26:29.792Z,102090.53
2022-09-07T00:28:58.814Z,102082.41
2022-09-07T00:31:26.020Z,102082.41
2022-09-07T00:33:54.359Z,102089.50
2022-09-07T00:36:22.053Z,102086.91
2022-09-07T00:38:49.275Z,102087.75
2022-09-07T00:41:17.136Z,102086.91
2022-09-07T00:43:47.295Z,102084.84
2022-09-07T00:46:23.913Z,102087.25
2022-09-07T00:49:02.864Z,102085.09
2022-09-07T00:51:41.133Z,102080.22
2022-09-07T00:54:12.642Z,102082.22
2022-09-07T00:56:43.464Z,102086.28
2022-09-07T00:59:11.809Z,102089.91
2022-09-07T01:01:39.482Z,102091.75
2022-09-07T01:04:07.154Z,102089.34
2022-09-07T01:06:36.525Z,102094.50
2022-09-07T01:09:06.965Z,102088.59
2022-09-07T01:11:35.260Z,102086.84
2022-09-07T01:14:04.743Z,102083.44
2022-09-07T01:16:53.632Z,102080.16
2022-09-07T01:19:42.861Z,102061.22
2022-09-07T01:22:22.984Z,102071.25
2022-09-07T01:25:12.613Z,102077.75
2022-09-07T01:27:57.361Z,102077.81
2022-09-07T01:30:24.965Z,102068.84
2022-09-07T01:33:17.864Z,102076.31
2022-09-07T01:36:08.984Z,102077.56
2022-09-07T01:38:46.268Z,102071.94
2022-09-07T01:41:24.872Z,102069.25
2022-09-07T01:44:09.646Z,102079.44
2022-09-07T01:46:53.804Z,102070.16
2022-09-07T01:49:26.594Z,102076.38
2022-09-07T01:51:58.080Z,102063.88
2022-09-07T01:54:35.076Z,102064.56
2022-09-07T01:57:09.076Z,102064.50
2022-09-07T01:59:41.991Z,102054.22
2022-09-07T02:02:17.620Z,102053.13
2022-09-07T02:05:01.262Z,102055.63
2022-09-07T02:07:34.378Z,102057.03
2022-09-07T02:10:13.073Z,102053.94
2022-09-07T02:12:50.518Z,102055.03
2022-09-07T02:15:24.109Z,102054.84
2022-09-07T02:17:57.030Z,102052.22
2022-09-07T02:20:29.402Z,102052.50
2022-09-07T02:23:00.012Z,102055.06
2022-09-07T02:25:42.384Z,102059.13
2022-09-07T02:28:12.649Z,102054.28
2022-09-07T02:30:39.504Z,102052.25
2022-09-07T02:33:06.564Z,102050.03
2022-09-07T02:35:33.920Z,102054.28
2022-09-07T02:38:04.441Z,102047.47
2022-09-07T02:40:31.405Z,102048.22
2022-09-07T02:43:04.124Z,102038.63
2022-09-07T02:45:46.724Z,102042.41
2022-09-07T02:48:42.383Z,102041.56
2022-09-07T02:51:15.094Z,102049.81
2022-09-07T02:54:04.511Z,102041.03
2022-09-07T02:56:51.066Z,102041.34
2022-09-07T02:59:45.546Z,102038.19
2022-09-07T03:02:28.706Z,102041.56
2022-09-07T03:05:04.836Z,102030.50
2022-09-07T03:07:44.013Z,102022.69
2022-09-07T03:10:13.104Z,102026.84
2022-09-07T03:12:42.033Z,102020.44
2022-09-07T03:15:12.066Z,102024.06
2022-09-07T03:17:39.402Z,102029.31
2022-09-07T03:20:06.404Z,102026.88
2022-09-07T03:22:33.708Z,102033.59
2022-09-07T03:25:00.827Z,102025.81
2022-09-07T03:27:27.455Z,102024.97
2022-09-07T03:29:54.008Z,102021.72
2022-09-07T03:32:20.547Z,102030.41
2022-09-07T03:34:48.589Z,102026.44
2022-09-07T03:37:15.278Z,102025.50
2022-09-07T03:39:41.884Z,102027.50
2022-09-07T03:42:08.692Z,102031.84
2022-09-07T03:44:35.243Z,102027.03
2022-09-07T03:47:01.822Z,102034.31
2022-09-07T03:49:28.401Z,102034.31
2022-09-07T03:51:54.937Z,102037.63
2022-09-07T03:54:22.280Z,102047.03
2022-09-07T03:56:48.861Z,102048.03
2022-09-07T03:59:15.397Z,102044.69
2022-09-07T04:01:41.991Z,102038.75
2022-09-07T04:04:09.162Z,102039.44
2022-09-07T04:06:35.777Z,102042.97
2022-09-07T04:09:07.554Z,102056.09
2022-09-07T04:11:34.384Z,102047.81
2022-09-07T04:14:00.968Z,102054.81
2022-09-07T04:16:27.869Z,102048.06
2022-09-07T04:18:54.939Z,102039.94
2022-09-07T04:21:23.431Z,102042.41
2022-09-07T04:23:50.299Z,102046.44
2022-09-07T04:26:22.145Z,102046.56
2022-09-07T04:28:49.376Z,102050.25
2022-09-07T04:31:17.517Z,102048.44
2022-09-07T04:33:45.849Z,102040.16
2022-09-07T04:36:13.106Z,102039.53
2022-09-07T04:38:40.167Z,102037.75
2022-09-07T04:41:12.367Z,102031.78
2022-09-07T04:43:40.647Z,102039.31
2022-09-07T04:46:16.553Z,102046.41
2022-09-07T04:48:43.133Z,102039.16
2022-09-07T04:51:10.896Z,102034.56
2022-09-07T04:53:38.457Z,102038.19
2022-09-07T04:56:05.685Z,102038.81
2022-09-07T04:58:32.885Z,102037.75
2022-09-07T05:01:04.503Z,102040.91
2022-09-07T05:03:33.759Z,102028.19
2022-09-07T05:06:05.154Z,102026.97
2022-09-07T05:08:43.919Z,102028.56
2022-09-07T05:11:12.095Z,102018.44
2022-09-07T05:13:39.267Z,101989.59
2022-09-07T05:16:09.928Z,102005.97
2022-09-07T05:18:37.054Z,102007.56
2022-09-07T05:21:17.542Z,102004.47
2022-09-07T05:23:44.615Z,102004.47
2022-09-07T05:26:12.543Z,101987.78
2022-09-07T05:28:39.204Z,101986.09
2022-09-07T05:31:19.563Z,101985.06
2022-09-07T05:36:38.988Z,101980.88
2022-09-07T05:39:07.305Z,101979.81
2022-09-07T05:41:34.101Z,101976.69
2022-09-07T05:46:47.451Z,101980.94
2022-09-07T05:49:14.052Z,101984.44
2022-09-07T05:51:41.209Z,101983.50
2022-09-07T05:54:07.782Z,101980.47
2022-09-07T05:56:36.147Z,101976.97
2022-09-07T05:59:03.487Z,101991.41
2022-09-07T06:01:30.110Z,101981.34
2022-09-07T06:03:56.877Z,101982.69
2022-09-07T06:06:23.487Z,101983.75
2022-09-07T06:08:52.524Z,101979.28
2022-09-07T06:11:21.800Z,101981.72
2022-09-07T06:13:48.763Z,101977.38
2022-09-07T06:16:16.575Z,101986.53
2022-09-07T06:18:45.685Z,101988.81
2022-09-07T06:21:13.385Z,101979.31
2022-09-07T06:23:41.693Z,101967.94
2022-09-07T06:26:08.648Z,101967.13
2022-09-07T06:28:37.610Z,101969.34
2022-09-07T06:31:07.609Z,101971.38
2022-09-07T06:33:35.304Z,101977.28
2022-09-07T06:36:05.221Z,101975.38
2022-09-07T06:38:33.838Z,101974.56
2022-09-07T06:43:50.328Z,101962.91
2022-09-07T06:49:04.151Z,101966.06
2022-09-07T06:51:32.167Z,101962.66
2022-09-07T06:56:48.402Z,101977.00
2022-09-07T06:59:14.969Z,101969.28
2022-09-07T07:01:41.510Z,101962.31
2022-09-07T07:04:08.147Z,101969.03
2022-09-07T07:06:36.095Z,101980.41
2022-09-07T07:09:04.360Z,101972.28
2022-09-07T07:11:34.204Z,101973.06
2022-09-07T07:14:00.849Z,101971.94
2022-09-07T07:16:27.807Z,101978.84
2022-09-07T07:18:55.961Z,101978.56
2022-09-07T07:21:23.378Z,101980.31
2022-09-07T07:23:51.459Z,101979.41
2022-09-07T07:26:20.824Z,101977.66
2022-09-07T07:29:05.241Z,101969.41
2022-09-07T07:31:33.374Z,101985.66
2022-09-07T07:34:00.107Z,101973.72
2022-09-07T07:36:27.422Z,101976.91
2022-09-07T07:44:17.451Z,101984.09
2022-09-07T07:46:48.002Z,101970.06
2022-09-07T07:49:14.868Z,101972.72
2022-09-07T07:54:28.061Z,101983.66
2022-09-07T07:56:54.598Z,101976.84
2022-09-07T07:59:21.200Z,101975.13
2022-09-07T08:01:47.844Z,101965.56
2022-09-07T08:04:14.746Z,101959.03
2022-09-07T08:06:44.631Z,101965.88
2022-09-07T08:09:12.268Z,101972.91
2022-09-07T08:11:40.452Z,101959.50
2022-09-07T08:14:08.680Z,101962.47
2022-09-07T08:16:36.772Z,101961.56
2022-09-07T08:19:03.902Z,101957.97
2022-09-07T08:21:30.516Z,101953.53
2022-09-07T08:23:57.101Z,101962.28
2022-09-07T08:26:23.744Z,101953.09
2022-09-07T08:28:50.279Z,101962.03
2022-09-07T08:31:17.835Z,101970.94
2022-09-07T08:33:44.815Z,101953.75
2022-09-07T08:36:20.399Z,101961.66
2022-09-07T08:38:47.522Z,101969.78
2022-09-07T08:41:26.751Z,101966.44
2022-09-07T08:43:59.698Z,101965.72
2022-09-07T08:46:40.781Z,101961.78
2022-09-07T08:49:16.295Z,101959.47
2022-09-07T08:51:55.368Z,101953.22
2022-09-07T08:54:21.951Z,101948.16
2022-09-07T08:59:48.678Z,101950.63
2022-09-07T09:02:36.521Z,101944.50
2022-09-07T09:05:35.960Z,101947.84
2022-09-07T09:08:21.166Z,101945.47
2022-09-07T09:11:02.767Z,101949.31
2022-09-07T09:13:29.246Z,101956.38
2022-09-07T09:16:09.706Z,101948.34
2022-09-07T09:18:52.369Z,101950.47
2022-09-07T09:21:20.088Z,101943.00
2022-09-07T09:23:51.115Z,101941.97
2022-09-07T09:26:25.007Z,101936.81
2022-09-07T09:28:52.066Z,101938.00
2022-09-07T09:31:22.490Z,101927.50
2022-09-07T09:34:12.618Z,101928.44
2022-09-07T09:36:43.503Z,101930.31
2022-09-07T09:39:36.880Z,101927.22
2022-09-07T09:42:09.813Z,101924.53
2022-09-07T09:44:38.395Z,101915.75
2022-09-07T09:49:54.188Z,101903.59
2022-09-07T09:52:29.614Z,101906.28
2022-09-07T09:55:03.393Z,101919.97
2022-09-07T10:03:58.574Z,101892.53
2022-09-07T10:06:28.169Z,101890.28
2022-09-07T10:09:00.658Z,101881.78
2022-09-07T10:14:34.562Z,101888.19
2022-09-07T10:17:10.556Z,101883.75
2022-09-07T10:19:39.503Z,101882.09
2022-09-07T10:22:23.731Z,101875.19
2022-09-07T10:24:50.994Z,101881.88
2022-09-07T10:27:38.727Z,101887.78
2022-09-07T10:30:16.549Z,101872.38
2022-09-07T10:32:50.674Z,101872.94
2022-09-07T10:35:50.815Z,101875.28
2022-09-07T10:38:25.067Z,101872.38
2022-09-07T10:41:07.859Z,101869.72
2022-09-07T10:43:43.368Z,101884.06
2022-09-07T10:49:34.623Z,101881.16
2022-09-07T10:52:26.482Z,101884.69
2022-09-07T10:55:13.830Z,101882.22
2022-09-07T10:57:52.930Z,101880.44
2022-09-07T11:00:21.535Z,101873.53
2022-09-07T11:05:49.488Z,101878.25
2022-09-07T11:14:23.768Z,101882.28
2022-09-07T11:16:59.087Z,101875.16
2022-09-07T11:19:36.394Z,101867.81
2022-09-07T11:22:28.282Z,101870.19
2022-09-07T11:25:31.333Z,101862.53
2022-09-07T11:28:04.147Z,101866.53
2022-09-07T11:30:37.347Z,101853.63
2022-09-07T11:33:20.105Z,101864.69
2022-09-07T11:36:02.373Z,101862.81
2022-09-07T11:38:33.617Z,101862.63
2022-09-07T11:41:22.638Z,101865.00
2022-09-07T11:44:16.552Z,101865.28
2022-09-07T11:46:52.547Z,101870.56
2022-09-07T11:49:21.798Z,101859.06
2022-09-07T11:51:54.061Z,101864.31
2022-09-07T11:54:20.750Z,101858.47
2022-09-07T11:56:54.816Z,101853.81
2022-09-07T11:59:46.647Z,101850.69
2022-09-07T12:03:06.105Z,101856.44
2022-09-07T12:06:02.005Z,101853.88
2022-09-07T12:08:43.832Z,101854.06
2022-09-07T12:11:35.616Z,101846.28
2022-09-07T12:14:20.853Z,101840.69
2022-09-07T12:17:35.620Z,101850.69
2022-09-07T12:20:17.265Z,101847.53
2022-09-07T12:23:05.826Z,101851.06
2022-09-07T12:25:35.096Z,101851.63
2022-09-07T12:28:02.104Z,101853.03
2022-09-07T12:30:30.247Z,101849.41
2022-09-07T12:32:58.439Z,101844.56
2022-09-07T12:35:28.452Z,101846.28
2022-09-07T12:37:56.563Z,101845.88
2022-09-07T12:40:30.860Z,101838.53
2022-09-07T12:43:12.785Z,101837.59
2022-09-07T12:45:39.263Z,101830.63
2022-09-07T12:48:14.804Z,101829.03
2022-09-07T12:50:59.704Z,101835.75
2022-09-07T12:54:01.888Z,101829.75
2022-09-07T12:56:43.113Z,101829.13
2022-09-07T12:59:29.519Z,101832.88
2022-09-07T13:02:20.865Z,101830.44
2022-09-07T13:05:09.110Z,101835.91
2022-09-07T13:08:04.252Z,101832.88
2022-09-07T13:10:37.819Z,101823.88
2022-09-07T13:13:07.834Z,101823.41
2022-09-07T13:15:39.047Z,101817.50
2022-09-07T13:18:12.581Z,101817.84
2022-09-07T13:20:40.751Z,101813.41
2022-09-07T13:23:22.265Z,101816.31
2022-09-07T13:25:55.141Z,101816.59
2022-09-07T13:28:25.378Z,101820.06
2022-09-07T13:31:25.402Z,101817.72
2022-09-07T13:33:54.303Z,101823.75
2022-09-07T13:36:39.663Z,101814.09
2022-09-07T13:39:14.540Z,101814.50
2022-09-07T13:41:46.395Z,101822.66
2022-09-07T13:44:25.593Z,101816.53
2022-09-07T13:46:58.716Z,101819.63
2022-09-07T13:49:51.410Z,101824.56
2022-09-07T13:52:43.074Z,101814.03
2022-09-07T13:55:38.705Z,101808.47
2022-09-07T13:58:22.298Z,101811.91
2022-09-07T14:00:59.071Z,101804.81
2022-09-07T14:03:28.420Z,101805.25
2022-09-07T14:06:25.625Z,101807.63
2022-09-07T14:08:56.555Z,101808.00
2022-09-07T14:11:39.241Z,101801.53
2022-09-07T14:14:07.399Z,101804.38
2022-09-07T14:16:37.958Z,101803.69
2022-09-07T14:19:20.617Z,101811.47
2022-09-07T14:21:55.119Z,101811.06
2022-09-07T14:24:31.153Z,101806.94
2022-09-07T14:26:58.555Z,101804.53
2022-09-07T14:29:30.286Z,101795.56
2022-09-07T14:31:59.653Z,101797.81
2022-09-07T14:34:30.411Z,101796.16
2022-09-07T14:37:01.713Z,101798.06
2022-09-07T14:39:29.915Z,101800.66
2022-09-07T14:41:58.886Z,101793.91
2022-09-07T14:44:39.031Z,101792.97
2022-09-07T14:47:24.498Z,101794.31
2022-09-07T14:49:52.896Z,101800.34
2022-09-07T14:52:42.436Z,101791.16
2022-09-07T14:55:29.206Z,101791.06
2022-09-07T14:58:15.882Z,101802.38
2022-09-07T15:00:44.951Z,101793.88
2022-09-07T15:03:31.943Z,101789.75
2022-09-07T15:06:01.364Z,101781.78
2022-09-07T15:08:49.000Z,101785.28
2022-09-07T15:11:39.520Z,101786.59
2022-09-07T15:14:20.503Z,101787.63
2022-09-07T15:19:47.229Z,101787.63
2022-09-07T15:22:14.067Z,101780.53
2022-09-07T15:24:40.798Z,101785.63
2022-09-07T15:27:21.941Z,101785.03
2022-09-07T15:29:48.680Z,101778.69
2022-09-07T15:32:18.111Z,101767.41
2022-09-07T15:34:45.779Z,101766.31
2022-09-07T15:40:01.615Z,101767.47
2022-09-07T15:45:16.459Z,101767.22
2022-09-07T15:47:52.122Z,101776.81
2022-09-07T15:50:19.437Z,101778.53
2022-09-07T15:52:46.371Z,101777.03
2022-09-07T15:55:13.336Z,101781.63
2022-09-07T15:58:09.050Z,101776.81
2022-09-07T16:00:27.472Z,101775.63
2022-09-07T16:03:09.757Z,101777.06
2022-09-07T16:05:40.706Z,101777.78
2022-09-07T16:10:54.475Z,101778.53
2022-09-07T16:13:24.240Z,101775.53
2022-09-07T16:15:51.427Z,101782.88
2022-09-07T16:18:18.709Z,101778.19
2022-09-07T16:20:45.699Z,101774.19
2022-09-07T16:23:14.896Z,101772.19
2022-09-07T16:25:43.393Z,101780.78
2022-09-07T16:28:10.967Z,101776.91
2022-09-07T16:30:41.093Z,101771.84
2022-09-07T16:33:08.443Z,101769.13
2022-09-07T16:35:35.189Z,101769.72
2022-09-07T16:40:50.900Z,101779.13
2022-09-07T16:43:17.639Z,101774.19
2022-09-07T16:48:32.551Z,101768.28
2022-09-07T16:51:05.231Z,101764.06
2022-09-07T16:53:34.556Z,101773.94
2022-09-07T16:56:03.284Z,101775.94
2022-09-07T16:58:36.113Z,101773.81
2022-09-07T17:01:04.420Z,101771.44
2022-09-07T17:03:31.223Z,101762.94
2022-09-07T17:06:00.736Z,101771.91
2022-09-07T17:08:28.340Z,101771.63
2022-09-07T17:11:02.809Z,101771.72
2022-09-07T17:13:31.421Z,101773.94
2022-09-07T17:16:07.896Z,101778.44
2022-09-07T17:21:22.435Z,101770.63
2022-09-07T17:23:54.795Z,101774.38
2022-09-07T17:26:23.650Z,101762.59
2022-09-07T17:28:55.734Z,101769.66
2022-09-07T17:34:15.576Z,101775.88
2022-09-07T17:36:43.261Z,101777.03
2022-09-07T17:39:16.232Z,101765.16
2022-09-07T17:41:44.250Z,101773.03
2022-09-07T17:44:11.551Z,101778.19
2022-09-07T17:46:38.551Z,101766.31
2022-09-07T17:49:08.179Z,101772.53
2022-09-07T17:51:36.203Z,101764.28
2022-09-07T17:54:10.232Z,101770.97
2022-09-07T17:56:40.056Z,101770.97
2022-09-07T18:01:54.525Z,101780.13
2022-09-07T18:04:22.208Z,101771.88
2022-09-07T18:06:49.083Z,101777.16
2022-09-07T18:09:16.683Z,101771.75
2022-09-07T18:11:45.962Z,101775.16
2022-09-07T18:14:14.999Z,101771.88
2022-09-07T18:16:44.291Z,101772.81
2022-09-07T18:19:12.473Z,101769.53
2022-09-07T18:21:43.783Z,101778.19
2022-09-07T18:24:24.822Z,101779.84
2022-09-07T18:26:54.772Z,101775.28
2022-09-07T18:29:32.420Z,101777.56
2022-09-07T18:32:01.587Z,101774.91
2022-09-07T18:34:29.244Z,101779.03
2022-09-07T18:36:57.392Z,101773.00
2022-09-07T18:39:26.618Z,101776.00
2022-09-07T18:41:59.368Z,101771.00
2022-09-07T18:47:21.696Z,101767.44
2022-09-07T18:49:50.933Z,101763.34
2022-09-07T18:55:07.522Z,101773.63
2022-09-07T18:57:36.111Z,101768.19
2022-09-07T19:00:05.590Z,101775.09
2022-09-07T19:02:33.797Z,101780.09
2022-09-07T19:07:49.478Z,101774.25
2022-09-07T19:10:18.055Z,101767.19
2022-09-07T19:12:46.144Z,101772.38
2022-09-07T19:15:13.558Z,101767.19
2022-09-07T19:17:40.549Z,101772.69
2022-09-07T19:20:08.050Z,101771.13
2022-09-07T19:22:34.767Z,101775.16
2022-09-07T19:25:01.478Z,101764.94
2022-09-07T19:27:28.441Z,101775.03
2022-09-07T19:29:55.499Z,101762.03
2022-09-07T19:32:22.235Z,101762.97
2022-09-07T19:34:54.527Z,101764.19
2022-09-07T19:37:25.759Z,101758.41
2022-09-07T19:39:55.297Z,101751.94
2022-09-07T19:42:23.850Z,101767.69
2022-09-07T19:44:51.444Z,101767.50
2022-09-07T19:47:19.005Z,101768.22
2022-09-07T19:49:46.073Z,101767.69
2022-09-07T19:52:12.958Z,101759.88
2022-09-07T19:54:40.532Z,101766.97
2022-09-07T19:57:07.555Z,101763.78
2022-09-07T19:59:34.133Z,101769.16
2022-09-07T20:02:00.895Z,101767.72
2022-09-07T20:04:28.524Z,101773.28
2022-09-07T20:06:55.647Z,101775.97
2022-09-07T20:09:22.477Z,101777.63
2022-09-07T20:11:49.497Z,101771.06
2022-09-07T20:14:17.111Z,101768.63
2022-09-07T20:16:44.224Z,101774.50
2022-09-07T20:19:14.599Z,101780.59
2022-09-07T20:21:41.845Z,101784.63
2022-09-07T20:24:10.831Z,101778.44
2022-09-07T20:26:37.355Z,101777.50
2022-09-07T20:29:26.601Z,101780.47
2022-09-07T20:31:50.858Z,101780.38
2022-09-07T20:34:17.479Z,101784.19
2022-09-07T20:36:43.990Z,101775.16
2022-09-07T20:39:15.170Z,101791.38
2022-09-07T20:41:41.927Z,101777.53
2022-09-07T20:44:09.106Z,101785.66
2022-09-07T20:46:36.084Z,101782.81
2022-09-07T20:49:03.897Z,101781.19
2022-09-07T20:51:30.512Z,101785.19
2022-09-07T20:53:57.124Z,101790.06
2022-09-07T20:56:26.318Z,101797.50
2022-09-07T20:58:57.765Z,101785.34
2022-09-07T21:01:24.693Z,101786.88
2022-09-07T21:03:53.685Z,101789.72
2022-09-07T21:06:21.842Z,101790.06
2022-09-07T21:08:49.556Z,101776.56
2022-09-07T21:11:22.240Z,101766.66
2022-09-07T21:13:58.412Z,101775.16
2022-09-07T21:16:25.542Z,101777.22
2022-09-07T21:18:55.428Z,101774.94
2022-09-07T21:21:23.327Z,101772.56
2022-09-07T21:23:55.907Z,101786.50
2022-09-07T21:26:22.809Z,101773.00
2022-09-07T21:28:58.003Z,101781.47
2022-09-07T21:31:24.830Z,101785.19
2022-09-07T21:33:59.249Z,101774.59
2022-09-07T21:36:26.353Z,101780.56
2022-09-07T21:38:54.402Z,101777.66
2022-09-07T21:41:22.360Z,101782.41
2022-09-07T21:43:48.930Z,101780.44
2022-09-07T21:46:18.934Z,101780.66
2022-09-07T21:48:46.317Z,101775.91
2022-09-07T21:51:14.255Z,101775.78
2022-09-07T21:53:41.470Z,101778.16
2022-09-07T21:56:11.280Z,101783.31
2022-09-07T21:58:38.579Z,101774.78
2022-09-07T22:01:12.841Z,101771.88
2022-09-07T22:03:40.612Z,101778.69
2022-09-07T22:06:08.214Z,101768.59
2022-09-07T22:08:36.045Z,101769.38
2022-09-07T22:11:11.664Z,101768.75
2022-09-07T22:13:38.523Z,101766.78
2022-09-07T22:16:06.239Z,101770.19
2022-09-07T22:18:34.639Z,101772.66
2022-09-07T22:21:06.302Z,101762.69
2022-09-07T22:23:34.589Z,101768.03
2022-09-07T22:26:01.574Z,101763.13
2022-09-07T22:28:31.820Z,101763.56
2022-09-07T22:31:13.468Z,101759.97
2022-09-07T22:33:41.567Z,101758.97
2022-09-07T22:36:38.683Z,101753.00
2022-09-07T22:39:09.013Z,101748.75
2022-09-07T22:41:38.231Z,101746.13
2022-09-07T22:44:06.440Z,101742.44
2022-09-07T22:46:36.026Z,101743.44
2022-09-07T22:49:02.634Z,101750.31
2022-09-07T22:51:29.149Z,101749.81
2022-09-07T22:53:56.264Z,101747.03
2022-09-07T22:56:26.272Z,101741.88
2022-09-07T22:58:55.898Z,101735.69
2022-09-07T23:01:22.946Z,101742.56
2022-09-07T23:03:49.932Z,101745.84
2022-09-07T23:06:30.878Z,101750.22
2022-09-07T23:09:00.081Z,101751.13
2022-09-07T23:11:27.152Z,101746.25
2022-09-07T23:13:55.814Z,101746.25
2022-09-07T23:16:22.765Z,101747.19
2022-09-07T23:18:49.498Z,101734.22
2022-09-07T23:21:16.753Z,101745.53
2022-09-07T23:23:43.560Z,101742.47
2022-09-07T23:26:10.111Z,101745.78
2022-09-07T23:28:36.928Z,101741.34
2022-09-07T23:31:03.667Z,101749.03
2022-09-07T23:33:31.088Z,101752.00
2022-09-07T23:36:02.387Z,101747.91
2022-09-07T23:38:30.103Z,101748.88
2022-09-07T23:40:57.834Z,101744.06
2022-09-07T23:43:27.382Z,101741.28
2022-09-07T23:45:54.738Z,101741.22
2022-09-07T23:48:21.868Z,101738.00
2022-09-07T23:50:48.683Z,101743.25
2022-09-07T23:53:15.796Z,101743.34
2022-09-07T23:55:42.923Z,101743.25
2022-09-07T23:58:09.867Z,101733.22
